createdAt,value
2018-09-17T00:00:34.936Z,931.88
2018-09-17T00:01:34.961Z,931.88
2018-09-17T00:02:35.096Z,931.93
2018-09-17T00:03:35.081Z,931.94
2018-09-17T00:04:35.000Z,931.99
2018-09-17T00:05:35.008Z,932.02
2018-09-17T00:06:35.017Z,932.04
2018-09-17T00:07:35.035Z,931.99
2018-09-17T00:08:35.104Z,932.05
2018-09-17T00:09:35.061Z,932.05
2018-09-17T00:10:35.069Z,932.06
2018-09-17T00:11:35.077Z,932.02
2018-09-17T00:12:35.318Z,932.06
2018-09-17T00:13:35.234Z,932.07
2018-09-17T00:14:35.122Z,932.08
2018-09-17T00:15:35.269Z,932.12
2018-09-17T00:16:35.143Z,932.15
2018-09-17T00:17:35.364Z,932.22
2018-09-17T00:18:35.162Z,932.24
2018-09-17T00:19:35.300Z,932.27
2018-09-17T00:20:35.315Z,932.31
2018-09-17T00:21:35.333Z,932.34
2018-09-17T00:22:35.395Z,932.40
2018-09-17T00:23:35.220Z,932.43
2018-09-17T00:24:35.247Z,932.47
2018-09-17T00:25:35.428Z,932.48
2018-09-17T00:26:35.282Z,932.51
2018-09-17T00:27:35.403Z,932.55
2018-09-17T00:28:35.411Z,932.56
2018-09-17T00:29:35.411Z,932.59
2018-09-17T00:30:35.326Z,932.60
2018-09-17T00:31:35.330Z,932.63
2018-09-17T00:32:35.466Z,932.64
2018-09-17T00:33:35.475Z,932.59
2018-09-17T00:34:35.508Z,932.61
2018-09-17T00:35:35.500Z,932.59
2018-09-17T00:36:35.387Z,932.56
2018-09-17T00:37:35.393Z,932.61
2018-09-17T00:38:35.408Z,932.60
2018-09-17T00:39:35.648Z,932.62
2018-09-17T00:40:35.432Z,932.57
2018-09-17T00:41:35.569Z,932.61
2018-09-17T00:42:35.587Z,932.57
2018-09-17T00:43:35.597Z,932.60
2018-09-17T00:44:35.582Z,932.66
2018-09-17T00:45:35.506Z,932.66
2018-09-17T00:46:35.529Z,932.72
2018-09-17T00:47:35.514Z,932.72
2018-09-17T00:48:35.532Z,932.75
2018-09-17T00:49:35.769Z,932.76
2018-09-17T00:50:35.546Z,932.76
2018-09-17T00:51:35.558Z,932.73
2018-09-17T00:52:35.573Z,932.71
2018-09-17T00:53:35.624Z,932.66
2018-09-17T00:54:35.707Z,932.64
2018-09-17T00:55:35.655Z,932.66
2018-09-17T00:56:35.631Z,932.63
2018-09-17T00:57:35.760Z,932.63
2018-09-17T00:58:35.773Z,932.62
2018-09-17T00:59:35.802Z,932.58
2018-09-17T01:00:35.802Z,932.59
2018-09-17T01:01:35.811Z,932.59
2018-09-17T01:02:35.705Z,932.54
2018-09-17T01:03:35.701Z,932.53
2018-09-17T01:04:35.821Z,932.52
2018-09-17T01:05:35.785Z,932.52
2018-09-17T01:06:35.746Z,932.50
2018-09-17T01:07:35.883Z,932.48
2018-09-17T01:08:35.814Z,932.50
2018-09-17T01:09:35.953Z,932.53
2018-09-17T01:10:35.919Z,932.54
2018-09-17T01:11:35.824Z,932.56
2018-09-17T01:12:35.837Z,932.53
2018-09-17T01:13:35.955Z,932.55
2018-09-17T01:14:35.936Z,932.52
2018-09-17T01:15:35.853Z,932.49
2018-09-17T01:16:35.994Z,932.47
2018-09-17T01:17:36.000Z,932.49
2018-09-17T01:18:36.018Z,932.46
2018-09-17T01:19:36.016Z,932.53
2018-09-17T01:20:35.912Z,932.50
2018-09-17T01:21:35.924Z,932.51
2018-09-17T01:22:35.954Z,932.57
2018-09-17T01:23:36.079Z,932.48
2018-09-17T01:24:36.142Z,932.47
2018-09-17T01:25:35.984Z,932.43
2018-09-17T01:26:35.980Z,932.39
2018-09-17T01:27:36.100Z,932.35
2018-09-17T01:28:36.012Z,932.29
2018-09-17T01:29:36.152Z,932.28
2018-09-17T01:30:36.060Z,932.28
2018-09-17T01:31:36.178Z,932.26
2018-09-17T01:32:36.283Z,932.28
2018-09-17T01:33:36.195Z,932.24
2018-09-17T01:34:36.083Z,932.17
2018-09-17T01:35:36.098Z,932.11
2018-09-17T01:36:36.228Z,932.13
2018-09-17T01:37:36.398Z,932.15
2018-09-17T01:38:36.126Z,932.13
2018-09-17T01:39:36.136Z,932.12
2018-09-17T01:40:36.275Z,932.08
2018-09-17T01:41:36.215Z,932.06
2018-09-17T01:42:36.401Z,931.95
2018-09-17T01:43:36.312Z,931.90
2018-09-17T01:44:36.328Z,931.83
2018-09-17T01:45:36.217Z,931.80
2018-09-17T01:46:36.221Z,931.75
2018-09-17T01:47:36.287Z,931.76
2018-09-17T01:48:36.242Z,931.78
2018-09-17T01:49:36.383Z,931.79
2018-09-17T01:50:36.452Z,931.83
2018-09-17T01:51:36.411Z,931.83
2018-09-17T01:52:36.299Z,931.85
2018-09-17T01:53:36.313Z,931.87
2018-09-17T01:54:36.325Z,931.86
2018-09-17T01:55:36.442Z,931.82
2018-09-17T01:56:36.472Z,931.82
2018-09-17T01:57:36.488Z,931.80
2018-09-17T01:58:36.378Z,931.75
2018-09-17T01:59:36.511Z,931.74
2018-09-17T02:00:36.620Z,931.70
2018-09-17T02:01:36.392Z,931.69
2018-09-17T02:02:36.547Z,931.68
2018-09-17T02:03:36.435Z,931.66
2018-09-17T02:04:36.443Z,931.64
2018-09-17T02:05:36.616Z,931.65
2018-09-17T02:06:36.462Z,931.64
2018-09-17T02:07:36.483Z,931.66
2018-09-17T02:08:36.522Z,931.62
2018-09-17T02:09:36.625Z,931.65
2018-09-17T02:10:36.692Z,931.64
2018-09-17T02:11:36.522Z,931.62
2018-09-17T02:12:36.538Z,931.63
2018-09-17T02:13:36.673Z,931.64
2018-09-17T02:14:36.683Z,931.62
2018-09-17T02:15:36.797Z,931.66
2018-09-17T02:16:36.581Z,931.62
2018-09-17T02:17:36.617Z,931.67
2018-09-17T02:18:36.731Z,931.65
2018-09-17T02:19:36.665Z,931.64
2018-09-17T02:20:36.750Z,931.64
2018-09-17T02:21:36.639Z,931.59
2018-09-17T02:22:36.664Z,931.58
2018-09-17T02:23:36.682Z,931.57
2018-09-17T02:24:36.813Z,931.60
2018-09-17T02:25:36.922Z,931.56
2018-09-17T02:26:36.710Z,931.62
2018-09-17T02:27:36.718Z,931.62
2018-09-17T02:28:36.729Z,931.62
2018-09-17T02:29:36.747Z,931.58
2018-09-17T02:30:36.977Z,931.55
2018-09-17T02:31:36.765Z,931.50
2018-09-17T02:32:36.815Z,931.49
2018-09-17T02:33:36.795Z,931.49
2018-09-17T02:34:36.793Z,931.47
2018-09-17T02:35:36.917Z,931.43
2018-09-17T02:36:36.949Z,931.45
2018-09-17T02:37:36.843Z,931.44
2018-09-17T02:38:36.849Z,931.43
2018-09-17T02:39:36.858Z,931.40
2018-09-17T02:40:36.980Z,931.37
2018-09-17T02:41:37.019Z,931.38
2018-09-17T02:42:37.024Z,931.34
2018-09-17T02:43:36.919Z,931.30
2018-09-17T02:44:36.961Z,931.22
2018-09-17T02:45:37.085Z,931.20
2018-09-17T02:46:36.940Z,931.22
2018-09-17T02:47:37.080Z,931.17
2018-09-17T02:48:36.979Z,931.17
2018-09-17T02:49:37.105Z,931.13
2018-09-17T02:50:37.215Z,931.16
2018-09-17T02:51:37.011Z,931.10
2018-09-17T02:52:37.020Z,931.07
2018-09-17T02:53:37.157Z,931.09
2018-09-17T02:54:37.036Z,931.09
2018-09-17T02:55:37.275Z,931.07
2018-09-17T02:56:37.064Z,931.07
2018-09-17T02:57:37.076Z,931.09
2018-09-17T02:58:37.090Z,931.06
2018-09-17T02:59:37.109Z,931.08
2018-09-17T03:00:37.281Z,931.07
2018-09-17T03:01:37.270Z,931.05
2018-09-17T03:02:37.130Z,931.03
2018-09-17T03:03:37.193Z,931.04
2018-09-17T03:04:37.157Z,931.04
2018-09-17T03:05:37.296Z,931.06
2018-09-17T03:06:37.229Z,931.10
2018-09-17T03:07:37.240Z,931.08
2018-09-17T03:08:37.207Z,931.10
2018-09-17T03:09:37.341Z,931.07
2018-09-17T03:10:37.222Z,931.02
2018-09-17T03:11:37.233Z,931.03
2018-09-17T03:12:37.348Z,930.97
2018-09-17T03:13:37.390Z,930.95
2018-09-17T03:14:37.282Z,930.93
2018-09-17T03:15:37.285Z,930.93
2018-09-17T03:16:37.425Z,930.85
2018-09-17T03:17:37.464Z,930.83
2018-09-17T03:18:37.321Z,930.79
2018-09-17T03:19:37.456Z,930.73
2018-09-17T03:20:37.346Z,930.64
2018-09-17T03:21:37.483Z,930.64
2018-09-17T03:22:37.533Z,930.61
2018-09-17T03:23:37.377Z,930.60
2018-09-17T03:24:37.446Z,930.56
2018-09-17T03:25:37.397Z,930.56
2018-09-17T03:26:37.405Z,930.52
2018-09-17T03:27:37.703Z,930.59
2018-09-17T03:28:37.441Z,930.64
2018-09-17T03:29:37.577Z,930.61
2018-09-17T03:30:37.460Z,930.67
2018-09-17T03:31:37.471Z,930.71
2018-09-17T03:32:37.758Z,930.78
2018-09-17T03:33:37.619Z,930.82
2018-09-17T03:34:37.501Z,930.86
2018-09-17T03:35:37.520Z,930.90
2018-09-17T03:36:37.576Z,930.87
2018-09-17T03:37:37.686Z,930.88
2018-09-17T03:38:37.681Z,930.91
2018-09-17T03:39:37.561Z,930.84
2018-09-17T03:40:37.705Z,930.89
2018-09-17T03:41:37.590Z,930.86
2018-09-17T03:42:37.933Z,930.85
2018-09-17T03:43:37.608Z,930.87
2018-09-17T03:44:37.615Z,930.91
2018-09-17T03:45:37.639Z,930.88
2018-09-17T03:46:37.704Z,930.88
2018-09-17T03:47:37.796Z,930.83
2018-09-17T03:48:37.711Z,930.79
2018-09-17T03:49:37.688Z,930.76
2018-09-17T03:50:37.814Z,930.74
2018-09-17T03:51:37.702Z,930.73
2018-09-17T03:52:37.888Z,930.79
2018-09-17T03:53:37.848Z,930.77
2018-09-17T03:54:37.858Z,930.86
2018-09-17T03:55:37.741Z,930.87
2018-09-17T03:56:37.755Z,930.87
2018-09-17T03:57:37.921Z,930.87
2018-09-17T03:58:37.795Z,930.88
2018-09-17T03:59:37.798Z,930.80
2018-09-17T04:00:37.806Z,930.77
2018-09-17T04:01:37.941Z,930.77
2018-09-17T04:02:37.970Z,930.73
2018-09-17T04:03:37.962Z,930.70
2018-09-17T04:04:37.853Z,930.72
2018-09-17T04:05:37.991Z,930.70
2018-09-17T04:06:38.005Z,930.71
2018-09-17T04:07:38.162Z,930.74
2018-09-17T04:08:37.904Z,930.83
2018-09-17T04:09:38.033Z,930.80
2018-09-17T04:10:37.926Z,930.84
2018-09-17T04:11:38.055Z,930.81
2018-09-17T04:12:38.217Z,930.78
2018-09-17T04:13:38.085Z,930.75
2018-09-17T04:14:37.977Z,930.76
2018-09-17T04:15:38.107Z,930.71
2018-09-17T04:16:38.120Z,930.75
2018-09-17T04:17:38.276Z,930.72
2018-09-17T04:18:38.142Z,930.70
2018-09-17T04:19:38.148Z,930.72
2018-09-17T04:20:38.161Z,930.67
2018-09-17T04:21:38.055Z,930.66
2018-09-17T04:22:38.204Z,930.62
2018-09-17T04:23:38.083Z,930.57
2018-09-17T04:24:38.084Z,930.56
2018-09-17T04:25:38.098Z,930.49
2018-09-17T04:26:38.107Z,930.45
2018-09-17T04:27:38.303Z,930.41
2018-09-17T04:28:38.136Z,930.34
2018-09-17T04:29:38.137Z,930.30
2018-09-17T04:30:38.284Z,930.29
2018-09-17T04:31:38.236Z,930.25
2018-09-17T04:32:38.375Z,930.25
2018-09-17T04:33:38.312Z,930.28
2018-09-17T04:34:38.199Z,930.26
2018-09-17T04:35:38.334Z,930.24
2018-09-17T04:36:38.353Z,930.22
2018-09-17T04:37:38.388Z,930.14
2018-09-17T04:38:38.263Z,930.10
2018-09-17T04:39:38.304Z,930.04
2018-09-17T04:40:38.264Z,930.02
2018-09-17T04:41:38.290Z,930.04
2018-09-17T04:42:38.341Z,930.05
2018-09-17T04:43:38.300Z,930.09
2018-09-17T04:44:38.310Z,930.09
2018-09-17T04:45:38.329Z,930.13
2018-09-17T04:46:38.345Z,930.11
2018-09-17T04:47:38.500Z,930.09
2018-09-17T04:48:38.493Z,930.06
2018-09-17T04:49:38.507Z,930.03
2018-09-17T04:50:38.421Z,930.07
2018-09-17T04:51:38.402Z,930.13
2018-09-17T04:52:38.474Z,930.11
2018-09-17T04:53:38.548Z,930.14
2018-09-17T04:54:38.583Z,930.17
2018-09-17T04:55:38.442Z,930.15
2018-09-17T04:56:38.469Z,930.09
2018-09-17T04:57:38.599Z,930.08
2018-09-17T04:58:38.603Z,930.13
2018-09-17T04:59:38.765Z,930.10
2018-09-17T05:00:38.626Z,930.12
2018-09-17T05:01:38.515Z,930.19
2018-09-17T05:02:38.655Z,930.17
2018-09-17T05:03:38.538Z,930.16
2018-09-17T05:04:38.698Z,930.21
2018-09-17T05:05:38.577Z,930.24
2018-09-17T05:06:38.574Z,930.23
2018-09-17T05:07:38.621Z,930.28
2018-09-17T05:08:38.602Z,930.26
2018-09-17T05:09:38.761Z,930.15
2018-09-17T05:10:38.742Z,930.08
2018-09-17T05:11:38.755Z,930.00
2018-09-17T05:12:38.774Z,929.90
2018-09-17T05:13:38.658Z,929.85
2018-09-17T05:14:38.806Z,929.75
2018-09-17T05:15:38.687Z,929.71
2018-09-17T05:16:38.713Z,929.70
2018-09-17T05:17:38.708Z,929.71
2018-09-17T05:18:38.752Z,929.73
2018-09-17T05:19:38.876Z,929.73
2018-09-17T05:20:38.806Z,929.72
2018-09-17T05:21:38.874Z,929.74
2018-09-17T05:22:38.763Z,929.72
2018-09-17T05:23:38.901Z,929.69
2018-09-17T05:24:38.957Z,929.69
2018-09-17T05:25:38.804Z,929.67
2018-09-17T05:26:38.846Z,929.64
2018-09-17T05:27:39.095Z,929.59
2018-09-17T05:28:38.832Z,929.58
2018-09-17T05:29:38.841Z,929.55
2018-09-17T05:30:38.893Z,929.51
2018-09-17T05:31:38.870Z,929.48
2018-09-17T05:32:39.031Z,929.51
2018-09-17T05:33:38.888Z,929.49
2018-09-17T05:34:39.027Z,929.44
2018-09-17T05:35:39.040Z,929.48
2018-09-17T05:36:38.928Z,929.46
2018-09-17T05:37:39.110Z,929.46
2018-09-17T05:38:39.076Z,929.42
2018-09-17T05:39:39.234Z,929.38
2018-09-17T05:40:39.102Z,929.34
2018-09-17T05:41:38.979Z,929.40
2018-09-17T05:42:39.117Z,929.31
2018-09-17T05:43:39.007Z,929.35
2018-09-17T05:44:39.073Z,929.36
2018-09-17T05:45:39.149Z,929.37
2018-09-17T05:46:39.224Z,929.37
2018-09-17T05:47:39.063Z,929.42
2018-09-17T05:48:39.077Z,929.41
2018-09-17T05:49:39.206Z,929.40
2018-09-17T05:50:39.096Z,929.44
2018-09-17T05:51:39.239Z,929.49
2018-09-17T05:52:39.115Z,929.57
2018-09-17T05:53:39.128Z,929.67
2018-09-17T05:54:39.260Z,929.79
2018-09-17T05:55:39.164Z,929.81
2018-09-17T05:56:39.354Z,929.93
2018-09-17T05:57:39.166Z,929.94
2018-09-17T05:58:39.178Z,929.90
2018-09-17T05:59:39.216Z,929.87
2018-09-17T06:00:39.199Z,929.85
2018-09-17T06:01:39.360Z,929.82
2018-09-17T06:02:39.236Z,929.80
2018-09-17T06:03:39.237Z,929.81
2018-09-17T06:04:39.372Z,929.80
2018-09-17T06:05:39.330Z,929.79
2018-09-17T06:06:39.417Z,929.79
2018-09-17T06:07:39.404Z,929.75
2018-09-17T06:08:39.419Z,929.73
2018-09-17T06:09:39.446Z,929.73
2018-09-17T06:10:39.443Z,929.72
2018-09-17T06:11:39.630Z,929.72
2018-09-17T06:12:39.345Z,929.68
2018-09-17T06:13:39.363Z,929.67
2018-09-17T06:14:39.536Z,929.60
2018-09-17T06:15:39.376Z,929.63
2018-09-17T06:16:39.665Z,929.59
2018-09-17T06:17:39.404Z,929.62
2018-09-17T06:18:39.532Z,929.60
2018-09-17T06:19:39.433Z,929.59
2018-09-17T06:20:39.556Z,929.59
2018-09-17T06:21:39.584Z,929.55
2018-09-17T06:22:39.585Z,929.57
2018-09-17T06:23:39.468Z,929.56
2018-09-17T06:24:39.483Z,929.54
2018-09-17T06:25:39.543Z,929.48
2018-09-17T06:26:39.915Z,929.48
2018-09-17T06:27:39.520Z,929.47
2018-09-17T06:28:39.545Z,929.47
2018-09-17T06:29:39.661Z,929.42
2018-09-17T06:30:39.568Z,929.43
2018-09-17T06:31:39.758Z,929.35
2018-09-17T06:32:39.580Z,929.32
2018-09-17T06:33:39.578Z,929.31
2018-09-17T06:34:39.724Z,929.27
2018-09-17T06:35:39.606Z,929.32
2018-09-17T06:36:39.766Z,929.30
2018-09-17T06:37:39.684Z,929.34
2018-09-17T06:38:39.635Z,929.36
2018-09-17T06:39:39.653Z,929.36
2018-09-17T06:40:39.663Z,929.35
2018-09-17T06:41:39.882Z,929.40
2018-09-17T06:42:39.688Z,929.36
2018-09-17T06:43:39.707Z,929.28
2018-09-17T06:44:39.835Z,929.26
2018-09-17T06:45:39.845Z,929.27
2018-09-17T06:46:39.878Z,929.26
2018-09-17T06:47:39.866Z,929.33
2018-09-17T06:48:39.878Z,929.36
2018-09-17T06:49:39.892Z,929.36
2018-09-17T06:50:39.777Z,929.34
2018-09-17T06:51:39.956Z,929.33
2018-09-17T06:52:39.810Z,929.28
2018-09-17T06:53:39.866Z,929.21
2018-09-17T06:54:39.823Z,929.20
2018-09-17T06:55:39.964Z,929.12
2018-09-17T06:56:40.013Z,929.13
2018-09-17T06:57:39.862Z,929.14
2018-09-17T06:58:39.995Z,929.19
2018-09-17T06:59:40.013Z,929.20
2018-09-17T07:00:40.019Z,929.20
2018-09-17T07:01:40.054Z,929.26
2018-09-17T07:02:40.042Z,929.23
2018-09-17T07:03:40.058Z,929.25
2018-09-17T07:04:39.953Z,929.24
2018-09-17T07:05:39.969Z,929.29
2018-09-17T07:06:40.118Z,929.30
2018-09-17T07:07:39.979Z,929.33
2018-09-17T07:08:39.982Z,929.34
2018-09-17T07:09:40.000Z,929.34
2018-09-17T07:10:40.140Z,929.38
2018-09-17T07:11:40.041Z,929.35
2018-09-17T07:12:40.209Z,929.39
2018-09-17T07:13:40.039Z,929.43
2018-09-17T07:14:40.054Z,929.44
2018-09-17T07:15:40.197Z,929.47
2018-09-17T07:16:40.207Z,929.50
2018-09-17T07:17:40.315Z,929.51
2018-09-17T07:18:40.102Z,929.50
2018-09-17T07:19:40.114Z,929.52
2018-09-17T07:20:40.254Z,929.54
2018-09-17T07:21:40.263Z,929.53
2018-09-17T07:22:40.324Z,929.55
2018-09-17T07:23:40.289Z,929.54
2018-09-17T07:24:40.216Z,929.57
2018-09-17T07:25:40.185Z,929.54
2018-09-17T07:26:40.424Z,929.57
2018-09-17T07:27:40.334Z,929.57
2018-09-17T07:28:40.225Z,929.55
2018-09-17T07:29:40.222Z,929.58
2018-09-17T07:30:40.246Z,929.57
2018-09-17T07:31:40.315Z,929.57
2018-09-17T07:32:40.403Z,929.56
2018-09-17T07:33:40.271Z,929.56
2018-09-17T07:34:40.305Z,929.57
2018-09-17T07:35:40.293Z,929.54
2018-09-17T07:36:40.475Z,929.56
2018-09-17T07:37:40.436Z,929.57
2018-09-17T07:38:40.462Z,929.56
2018-09-17T07:39:40.353Z,929.54
2018-09-17T07:40:40.358Z,929.56
2018-09-17T07:41:40.380Z,929.50
2018-09-17T07:42:40.540Z,929.45
2018-09-17T07:43:40.523Z,929.46
2018-09-17T07:44:40.421Z,929.44
2018-09-17T07:45:40.543Z,929.42
2018-09-17T07:46:40.558Z,929.39
2018-09-17T07:47:40.724Z,929.41
2018-09-17T07:48:40.451Z,929.41
2018-09-17T07:49:40.474Z,929.36
2018-09-17T07:50:40.485Z,929.38
2018-09-17T07:51:40.492Z,929.42
2018-09-17T07:52:40.777Z,929.45
2018-09-17T07:53:40.537Z,929.47
2018-09-17T07:54:40.527Z,929.48
2018-09-17T07:55:40.537Z,929.50
2018-09-17T07:56:40.584Z,929.54
2018-09-17T07:57:40.707Z,929.55
2018-09-17T07:58:40.587Z,929.53
2018-09-17T07:59:40.633Z,929.52
2018-09-17T08:00:40.611Z,929.56
2018-09-17T08:01:40.735Z,929.54
2018-09-17T08:02:40.777Z,929.55
2018-09-17T08:03:40.752Z,929.57
2018-09-17T08:04:40.776Z,929.65
2018-09-17T08:05:40.684Z,929.62
2018-09-17T08:06:40.673Z,929.69
2018-09-17T08:07:40.866Z,929.71
2018-09-17T08:08:40.746Z,929.73
2018-09-17T08:09:40.828Z,929.78
2018-09-17T08:10:40.707Z,929.81
2018-09-17T08:11:40.731Z,929.86
2018-09-17T08:12:40.885Z,929.91
2018-09-17T08:13:40.747Z,929.97
2018-09-17T08:14:40.759Z,930.00
2018-09-17T08:15:40.782Z,930.05
2018-09-17T08:16:40.911Z,930.09
2018-09-17T08:17:40.941Z,930.12
2018-09-17T08:18:40.805Z,930.19
2018-09-17T08:19:40.952Z,930.22
2018-09-17T08:20:40.838Z,930.22
2018-09-17T08:21:40.836Z,930.26
2018-09-17T08:22:41.132Z,930.25
2018-09-17T08:23:40.992Z,930.30
2018-09-17T08:24:40.881Z,930.33
2018-09-17T08:25:41.016Z,930.35
2018-09-17T08:26:40.938Z,930.37
2018-09-17T08:27:41.181Z,930.37
2018-09-17T08:28:41.050Z,930.37
2018-09-17T08:29:41.057Z,930.37
2018-09-17T08:30:41.064Z,930.37
2018-09-17T08:31:41.080Z,930.39
2018-09-17T08:32:41.126Z,930.40
2018-09-17T08:33:41.104Z,930.34
2018-09-17T08:34:41.114Z,930.34
2018-09-17T08:35:41.010Z,930.33
2018-09-17T08:36:41.139Z,930.33
2018-09-17T08:37:41.173Z,930.30
2018-09-17T08:38:41.031Z,930.29
2018-09-17T08:39:41.038Z,930.31
2018-09-17T08:40:41.053Z,930.28
2018-09-17T08:41:41.114Z,930.27
2018-09-17T08:42:41.299Z,930.28
2018-09-17T08:43:41.215Z,930.26
2018-09-17T08:44:41.222Z,930.27
2018-09-17T08:45:41.159Z,930.27
2018-09-17T08:46:41.172Z,930.31
2018-09-17T08:47:41.229Z,930.34
2018-09-17T08:48:41.268Z,930.33
2018-09-17T08:49:41.158Z,930.32
2018-09-17T08:50:41.171Z,930.29
2018-09-17T08:51:41.178Z,930.31
2018-09-17T08:52:41.430Z,930.32
2018-09-17T08:53:41.195Z,930.31
2018-09-17T08:54:41.220Z,930.33
2018-09-17T08:55:41.239Z,930.36
2018-09-17T08:56:41.238Z,930.41
2018-09-17T08:57:41.338Z,930.48
2018-09-17T08:58:41.252Z,930.43
2018-09-17T08:59:41.390Z,930.42
2018-09-17T09:00:41.409Z,930.44
2018-09-17T09:01:41.287Z,930.43
2018-09-17T09:02:41.410Z,930.47
2018-09-17T09:03:41.306Z,930.39
2018-09-17T09:04:41.321Z,930.35
2018-09-17T09:05:41.458Z,930.40
2018-09-17T09:06:41.342Z,930.41
2018-09-17T09:07:41.579Z,930.38
2018-09-17T09:08:41.486Z,930.41
2018-09-17T09:09:41.381Z,930.37
2018-09-17T09:10:41.512Z,930.40
2018-09-17T09:11:41.403Z,930.45
2018-09-17T09:12:41.558Z,930.47
2018-09-17T09:13:41.552Z,930.46
2018-09-17T09:14:41.432Z,930.48
2018-09-17T09:15:41.567Z,930.42
2018-09-17T09:16:41.455Z,930.44
2018-09-17T09:17:41.565Z,930.47
2018-09-17T09:18:41.473Z,930.44
2018-09-17T09:19:41.537Z,930.49
2018-09-17T09:20:41.624Z,930.52
2018-09-17T09:21:41.515Z,930.50
2018-09-17T09:22:41.803Z,930.51
2018-09-17T09:23:41.533Z,930.50
2018-09-17T09:24:41.547Z,930.51
2018-09-17T09:25:41.555Z,930.50
2018-09-17T09:26:41.575Z,930.52
2018-09-17T09:27:41.689Z,930.51
2018-09-17T09:28:41.713Z,930.50
2018-09-17T09:29:41.738Z,930.52
2018-09-17T09:30:41.793Z,930.55
2018-09-17T09:31:41.613Z,930.54
2018-09-17T09:32:41.732Z,930.54
2018-09-17T09:33:41.660Z,930.56
2018-09-17T09:34:41.785Z,930.54
2018-09-17T09:35:41.681Z,930.53
2018-09-17T09:36:41.686Z,930.52
2018-09-17T09:37:41.914Z,930.56
2018-09-17T09:38:41.698Z,930.55
2018-09-17T09:39:41.714Z,930.52
2018-09-17T09:40:41.733Z,930.55
2018-09-17T09:41:41.860Z,930.53
2018-09-17T09:42:41.809Z,930.56
2018-09-17T09:43:41.891Z,930.54
2018-09-17T09:44:41.769Z,930.49
2018-09-17T09:45:41.906Z,930.49
2018-09-17T09:46:41.918Z,930.50
2018-09-17T09:47:41.955Z,930.55
2018-09-17T09:48:41.827Z,930.54
2018-09-17T09:49:41.834Z,930.51
2018-09-17T09:50:41.967Z,930.56
2018-09-17T09:51:41.861Z,930.55
2018-09-17T09:52:42.014Z,930.53
2018-09-17T09:53:41.883Z,930.52
2018-09-17T09:54:41.885Z,930.51
2018-09-17T09:55:41.904Z,930.46
2018-09-17T09:56:42.037Z,930.50
2018-09-17T09:57:42.156Z,930.55
2018-09-17T09:58:42.060Z,930.56
2018-09-17T09:59:42.060Z,930.53
2018-09-17T10:00:41.959Z,930.49
2018-09-17T10:01:41.983Z,930.41
2018-09-17T10:02:41.985Z,930.43
2018-09-17T10:03:42.097Z,930.43
2018-09-17T10:04:42.047Z,930.38
2018-09-17T10:05:42.061Z,930.35
2018-09-17T10:06:42.156Z,930.30
2018-09-17T10:07:42.056Z,930.32
2018-09-17T10:08:42.281Z,930.37
2018-09-17T10:09:42.196Z,930.38
2018-09-17T10:10:42.077Z,930.37
2018-09-17T10:11:42.160Z,930.35
2018-09-17T10:12:42.229Z,930.33
2018-09-17T10:13:42.279Z,930.34
2018-09-17T10:14:42.257Z,930.36
2018-09-17T10:15:42.263Z,930.38
2018-09-17T10:16:42.280Z,930.33
2018-09-17T10:17:42.209Z,930.37
2018-09-17T10:18:42.331Z,930.39
2018-09-17T10:19:42.322Z,930.42
2018-09-17T10:20:42.216Z,930.43
2018-09-17T10:21:42.243Z,930.44
2018-09-17T10:22:42.351Z,930.41
2018-09-17T10:23:42.382Z,930.37
2018-09-17T10:24:42.378Z,930.37
2018-09-17T10:25:42.261Z,930.39
2018-09-17T10:26:42.275Z,930.39
2018-09-17T10:27:42.415Z,930.41
2018-09-17T10:28:42.408Z,930.33
2018-09-17T10:29:42.438Z,930.35
2018-09-17T10:30:42.343Z,930.38
2018-09-17T10:31:42.465Z,930.40
2018-09-17T10:32:42.339Z,930.44
2018-09-17T10:33:42.588Z,930.48
2018-09-17T10:34:42.369Z,930.51
2018-09-17T10:35:42.391Z,930.50
2018-09-17T10:36:42.403Z,930.52
2018-09-17T10:37:42.416Z,930.54
2018-09-17T10:38:42.575Z,930.54
2018-09-17T10:39:42.570Z,930.57
2018-09-17T10:40:42.453Z,930.51
2018-09-17T10:41:42.464Z,930.54
2018-09-17T10:42:42.499Z,930.52
2018-09-17T10:43:42.608Z,930.50
2018-09-17T10:44:42.513Z,930.48
2018-09-17T10:45:42.559Z,930.48
2018-09-17T10:46:42.566Z,930.47
2018-09-17T10:47:42.591Z,930.49
2018-09-17T10:48:42.831Z,930.53
2018-09-17T10:49:42.696Z,930.51
2018-09-17T10:50:42.590Z,930.58
2018-09-17T10:51:42.608Z,930.58
2018-09-17T10:52:42.743Z,930.59
2018-09-17T10:53:42.908Z,930.60
2018-09-17T10:54:42.653Z,930.59
2018-09-17T10:55:42.660Z,930.60
2018-09-17T10:56:42.717Z,930.62
2018-09-17T10:57:42.696Z,930.62
2018-09-17T10:58:42.796Z,930.63
2018-09-17T10:59:42.730Z,930.65
2018-09-17T11:00:42.848Z,930.67
2018-09-17T11:01:42.740Z,930.69
2018-09-17T11:02:42.875Z,930.70
2018-09-17T11:03:43.045Z,930.70
2018-09-17T11:04:42.777Z,930.68
2018-09-17T11:05:42.795Z,930.68
2018-09-17T11:06:42.820Z,930.65
2018-09-17T11:07:42.825Z,930.73
2018-09-17T11:08:42.932Z,930.72
2018-09-17T11:09:42.859Z,930.69
2018-09-17T11:10:42.990Z,930.68
2018-09-17T11:11:43.017Z,930.68
2018-09-17T11:12:42.934Z,930.61
2018-09-17T11:13:43.068Z,930.58
2018-09-17T11:14:43.049Z,930.59
2018-09-17T11:15:42.939Z,930.52
2018-09-17T11:16:42.953Z,930.58
2018-09-17T11:17:43.133Z,930.60
2018-09-17T11:18:43.258Z,930.59
2018-09-17T11:19:43.128Z,930.59
2018-09-17T11:20:43.024Z,930.57
2018-09-17T11:21:43.031Z,930.57
2018-09-17T11:22:43.045Z,930.57
2018-09-17T11:23:43.170Z,930.58
2018-09-17T11:24:43.085Z,930.61
2018-09-17T11:25:43.100Z,930.56
2018-09-17T11:26:43.231Z,930.53
2018-09-17T11:27:43.122Z,930.53
2018-09-17T11:28:43.365Z,930.52
2018-09-17T11:29:43.155Z,930.47
2018-09-17T11:30:43.308Z,930.47
2018-09-17T11:31:43.186Z,930.45
2018-09-17T11:32:43.220Z,930.44
2018-09-17T11:33:43.343Z,930.39
2018-09-17T11:34:43.253Z,930.34
2018-09-17T11:35:43.276Z,930.33
2018-09-17T11:36:43.285Z,930.34
2018-09-17T11:37:43.302Z,930.30
2018-09-17T11:38:43.414Z,930.27
2018-09-17T11:39:43.456Z,930.29
2018-09-17T11:40:43.348Z,930.28
2018-09-17T11:41:43.378Z,930.30
2018-09-17T11:42:43.508Z,930.34
2018-09-17T11:43:43.447Z,930.34
2018-09-17T11:44:43.417Z,930.31
2018-09-17T11:45:43.435Z,930.28
2018-09-17T11:46:43.593Z,930.25
2018-09-17T11:47:43.472Z,930.23
2018-09-17T11:48:43.524Z,930.19
2018-09-17T11:49:43.514Z,930.17
2018-09-17T11:50:43.566Z,930.19
2018-09-17T11:51:43.633Z,930.16
2018-09-17T11:52:43.682Z,930.17
2018-09-17T11:53:43.574Z,930.14
2018-09-17T11:54:43.595Z,930.10
2018-09-17T11:55:43.728Z,930.10
2018-09-17T11:56:43.842Z,930.08
2018-09-17T11:57:43.639Z,930.08
2018-09-17T11:58:43.780Z,930.10
2018-09-17T11:59:43.661Z,930.09
2018-09-17T12:00:43.686Z,930.11
2018-09-17T12:01:43.891Z,930.07
2018-09-17T12:02:43.846Z,930.09
2018-09-17T12:03:43.769Z,930.08
2018-09-17T12:04:43.751Z,930.08
2018-09-17T12:05:43.896Z,930.10
2018-09-17T12:06:43.954Z,930.11
2018-09-17T12:07:43.937Z,930.14
2018-09-17T12:08:43.807Z,930.18
2018-09-17T12:09:43.955Z,930.23
2018-09-17T12:10:43.872Z,930.24
2018-09-17T12:11:44.141Z,930.30
2018-09-17T12:12:43.942Z,930.31
2018-09-17T12:13:43.908Z,930.32
2018-09-17T12:14:43.906Z,930.36
2018-09-17T12:15:43.934Z,930.36
2018-09-17T12:16:43.986Z,930.36
2018-09-17T12:17:43.961Z,930.38
2018-09-17T12:18:44.075Z,930.29
2018-09-17T12:19:43.994Z,930.34
2018-09-17T12:20:43.993Z,930.41
2018-09-17T12:21:44.145Z,930.38
2018-09-17T12:22:44.031Z,930.41
2018-09-17T12:23:44.252Z,930.42
2018-09-17T12:24:44.071Z,930.40
2018-09-17T12:25:44.084Z,930.37
2018-09-17T12:26:44.124Z,930.43
2018-09-17T12:27:44.097Z,930.43
2018-09-17T12:28:44.400Z,930.47